createdAt,value
2018-06-04T00:00:01.906Z,20.40
2018-06-04T00:02:36.785Z,21.63
2018-06-04T00:05:11.723Z,19.80
2018-06-04T00:07:46.859Z,19.50
2018-06-04T00:10:21.694Z,20.37
2018-06-04T00:12:56.799Z,19.00
2018-06-04T00:15:31.912Z,20.40
2018-06-04T00:18:06.823Z,19.37
2018-06-04T00:20:41.614Z,20.10
2018-06-04T00:23:16.616Z,20.50
2018-06-04T00:25:51.804Z,20.20
2018-06-04T00:28:26.719Z,20.67
2018-06-04T00:31:01.574Z,21.17
2018-06-04T00:33:36.528Z,20.93
2018-06-04T00:36:11.599Z,20.43
2018-06-04T00:38:46.573Z,20.50
2018-06-04T00:41:21.547Z,20.20
2018-06-04T00:43:56.708Z,19.73
2018-06-04T00:46:31.564Z,21.80
2018-06-04T00:49:06.553Z,20.63
2018-06-04T00:51:41.658Z,19.47
2018-06-04T00:54:16.594Z,20.10
2018-06-04T00:56:51.671Z,19.53
2018-06-04T00:59:27.041Z,21.13
2018-06-04T01:02:02.115Z,20.90
2018-06-04T01:04:36.935Z,21.00
2018-06-04T01:07:11.820Z,21.17
2018-06-04T01:09:46.762Z,21.20
2018-06-04T01:12:21.743Z,20.03
2018-06-04T01:14:56.504Z,21.50
2018-06-04T01:17:31.434Z,20.80
2018-06-04T01:20:06.915Z,22.97
2018-06-04T01:22:42.030Z,21.80
2018-06-04T01:25:16.962Z,22.00
2018-06-04T01:27:51.922Z,22.87
2018-06-04T01:30:26.741Z,21.00
2018-06-04T01:33:01.587Z,21.77
2018-06-04T01:35:36.434Z,23.40
2018-06-04T01:38:11.435Z,22.70
2018-06-04T01:40:46.754Z,24.27
2018-06-04T01:43:21.627Z,23.87
2018-06-04T01:45:56.471Z,24.17
2018-06-04T01:48:31.416Z,23.40
2018-06-04T01:51:06.295Z,23.87
2018-06-04T01:53:41.684Z,23.30
2018-06-04T01:56:16.678Z,23.90
2018-06-04T01:58:51.456Z,23.70
2018-06-04T02:01:26.121Z,22.67
2018-06-04T02:04:01.268Z,23.47
2018-06-04T02:06:36.293Z,24.20
2018-06-04T02:09:11.528Z,23.50
2018-06-04T02:11:46.186Z,23.77
2018-06-04T02:14:21.246Z,23.10
2018-06-04T02:16:56.004Z,24.97
2018-06-04T02:19:31.050Z,23.17
2018-06-04T02:22:05.633Z,25.03
2018-06-04T02:24:40.627Z,25.23
2018-06-04T02:27:15.446Z,23.63
2018-06-04T02:29:50.333Z,24.70
2018-06-04T02:32:25.430Z,25.90
2018-06-04T02:35:00.309Z,25.00
2018-06-04T02:37:35.185Z,24.90
2018-06-04T02:40:10.468Z,24.77
2018-06-04T02:42:45.610Z,24.70
2018-06-04T02:45:20.722Z,25.17
2018-06-04T02:47:55.420Z,24.77
2018-06-04T02:50:30.409Z,25.50
2018-06-04T02:53:05.474Z,25.63
2018-06-04T02:55:40.645Z,25.60
2018-06-04T02:58:15.477Z,25.07
2018-06-04T03:00:50.518Z,25.00
2018-06-04T03:03:25.347Z,25.30
2018-06-04T03:06:00.691Z,26.27
2018-06-04T03:08:35.560Z,26.90
2018-06-04T03:11:10.667Z,26.30
2018-06-04T03:13:45.509Z,25.70
2018-06-04T03:16:20.386Z,26.33
2018-06-04T03:18:55.603Z,27.07
2018-06-04T03:21:30.558Z,25.50
2018-06-04T03:24:05.700Z,25.80
2018-06-04T03:26:40.804Z,26.80
2018-06-04T03:29:15.653Z,24.70
2018-06-04T03:31:50.620Z,25.90
2018-06-04T03:34:25.544Z,25.10
2018-06-04T03:37:02.076Z,24.53
2018-06-04T03:39:36.882Z,25.83
2018-06-04T03:42:11.665Z,24.07
2018-06-04T03:44:46.594Z,25.70
2018-06-04T03:47:21.654Z,25.67
2018-06-04T03:49:56.635Z,25.63
2018-06-04T03:52:31.724Z,26.30
2018-06-04T03:55:06.463Z,25.60
2018-06-04T03:57:41.388Z,26.83
2018-06-04T04:00:16.320Z,26.53
2018-06-04T04:02:51.297Z,25.10
2018-06-04T04:05:26.933Z,24.50
2018-06-04T04:08:01.856Z,23.63
2018-06-04T04:10:36.746Z,24.30
2018-06-04T04:13:11.416Z,24.27
2018-06-04T04:15:46.744Z,23.87
2018-06-04T04:18:21.558Z,25.00
2018-06-04T04:20:56.724Z,25.60
2018-06-04T04:23:31.528Z,25.20
2018-06-04T04:26:06.255Z,24.00
2018-06-04T04:28:44.032Z,22.50
2018-06-04T04:31:18.843Z,25.00
2018-06-04T04:33:53.767Z,23.80
2018-06-04T04:36:28.499Z,24.40
2018-06-04T04:39:04.656Z,24.10
2018-06-04T04:41:39.793Z,24.97
2018-06-04T04:44:14.795Z,24.40
2018-06-04T04:46:50.233Z,25.77
2018-06-04T04:49:25.518Z,25.77
2018-06-04T04:52:00.626Z,22.70
2018-06-04T04:54:36.158Z,23.20
2018-06-04T04:57:10.665Z,24.17
2018-06-04T04:59:45.237Z,25.87
2018-06-04T05:02:20.398Z,22.80
2018-06-04T05:04:55.473Z,24.83
2018-06-04T05:07:30.380Z,24.63
2018-06-04T05:10:05.588Z,24.20
2018-06-04T05:12:40.422Z,24.33
2018-06-04T05:15:15.615Z,24.80
2018-06-04T05:17:50.634Z,24.10
2018-06-04T05:20:25.497Z,25.00
2018-06-04T05:23:00.744Z,23.90
2018-06-04T05:25:35.551Z,26.03
2018-06-04T05:28:10.724Z,24.10
2018-06-04T05:30:45.560Z,24.40
2018-06-04T05:33:20.381Z,27.07
2018-06-04T05:35:54.947Z,26.20
2018-06-04T05:38:29.851Z,25.07
2018-06-04T05:41:04.640Z,26.40
2018-06-04T05:43:39.575Z,27.40
2018-06-04T05:46:15.655Z,28.20
2018-06-04T05:48:50.591Z,26.87
2018-06-04T05:51:25.626Z,26.63
2018-06-04T05:54:00.349Z,26.20
2018-06-04T05:56:35.252Z,27.50
2018-06-04T05:59:10.268Z,27.33
2018-06-04T06:01:45.177Z,27.97
2018-06-04T06:04:20.183Z,27.70
2018-06-04T06:06:55.511Z,29.47
2018-06-04T06:09:31.251Z,28.27
2018-06-04T06:12:06.403Z,29.13
2018-06-04T06:14:41.946Z,33.10
2018-06-04T06:17:16.862Z,29.00
2018-06-04T06:19:51.869Z,29.47
2018-06-04T06:22:27.131Z,33.83
2018-06-04T06:25:02.183Z,31.87
2018-06-04T06:27:37.541Z,30.77
2018-06-04T06:30:12.272Z,31.47
2018-06-04T06:32:47.272Z,34.77
2018-06-04T06:35:22.449Z,33.13
2018-06-04T06:37:57.464Z,32.00
2018-06-04T06:40:32.340Z,33.03
2018-06-04T06:43:07.266Z,31.80
2018-06-04T06:45:42.128Z,30.87
2018-06-04T06:48:17.329Z,33.60
2018-06-04T06:50:52.170Z,32.00
2018-06-04T06:53:28.404Z,30.63
2018-06-04T06:56:10.256Z,31.30
2018-06-04T06:58:45.248Z,29.20
2018-06-04T07:01:20.528Z,27.83
2018-06-04T07:03:55.418Z,29.27
2018-06-04T07:06:30.459Z,29.03
2018-06-04T07:09:08.197Z,31.40
2018-06-04T07:11:42.981Z,29.70
2018-06-04T07:14:18.048Z,29.80
2018-06-04T07:16:53.304Z,30.10
2018-06-04T07:19:28.532Z,29.80
2018-06-04T07:22:03.422Z,30.90
2018-06-04T07:24:38.609Z,29.33
2018-06-04T07:27:13.476Z,28.57
2018-06-04T07:29:48.427Z,30.93
2018-06-04T07:32:23.676Z,27.60
2018-06-04T07:34:58.519Z,29.60
2018-06-04T07:37:33.814Z,29.13
2018-06-04T07:40:09.850Z,25.90
2018-06-04T07:42:45.014Z,25.27
2018-06-04T07:45:20.268Z,24.73
2018-06-04T07:47:55.993Z,25.40
2018-06-04T07:50:41.896Z,23.37
2018-06-04T07:53:11.458Z,22.73
2018-06-04T07:55:40.960Z,23.53
2018-06-04T07:58:16.206Z,25.93
2018-06-04T08:00:45.419Z,25.27
2018-06-04T08:03:20.027Z,26.83
2018-06-04T08:05:50.744Z,28.60
2018-06-04T08:08:26.494Z,26.17
2018-06-04T08:10:55.693Z,25.43
2018-06-04T08:13:25.190Z,25.37
2018-06-04T08:15:55.110Z,23.70
2018-06-04T08:18:24.385Z,22.53
2018-06-04T08:20:53.751Z,21.90
2018-06-04T08:23:23.300Z,21.47
2018-06-04T08:25:52.694Z,20.50
2018-06-04T08:28:21.839Z,20.17
2018-06-04T08:30:51.398Z,21.43
2018-06-04T08:33:20.537Z,21.87
2018-06-04T08:35:50.590Z,18.97
2018-06-04T08:38:19.842Z,18.63
2018-06-04T08:40:49.421Z,17.93
2018-06-04T08:43:19.917Z,17.50
2018-06-04T08:45:49.119Z,15.80
2018-06-04T08:48:18.316Z,15.50
2018-06-04T08:50:47.843Z,15.23
2018-06-04T08:53:17.110Z,14.87
2018-06-04T08:55:46.418Z,15.53
2018-06-04T08:58:15.888Z,15.77
2018-06-04T09:00:45.392Z,14.20
2018-06-04T09:03:14.773Z,14.20
2018-06-04T09:05:44.325Z,14.90
2018-06-04T09:08:13.600Z,14.93
2018-06-04T09:10:43.012Z,12.83
2018-06-04T09:13:12.668Z,13.00
2018-06-04T09:15:42.096Z,12.90
2018-06-04T09:18:11.371Z,11.57
2018-06-04T09:20:40.902Z,11.63
2018-06-04T09:23:10.333Z,11.03
2018-06-04T09:25:39.557Z,11.60
2018-06-04T09:28:09.373Z,11.20
2018-06-04T09:30:38.447Z,12.47
2018-06-04T09:33:07.470Z,12.10
2018-06-04T09:35:36.896Z,12.90
2018-06-04T09:38:06.267Z,13.40
2018-06-04T09:40:35.617Z,12.23
2018-06-04T09:43:04.977Z,12.40
2018-06-04T09:45:34.243Z,12.13
2018-06-04T09:48:03.593Z,11.30
2018-06-04T09:50:32.854Z,13.30
2018-06-04T09:53:02.242Z,12.20
2018-06-04T09:55:31.608Z,14.80
2018-06-04T09:58:00.960Z,12.97
2018-06-04T10:00:34.429Z,12.40
2018-06-04T10:03:05.094Z,12.57
2018-06-04T10:05:34.503Z,11.83
2018-06-04T10:08:04.494Z,11.97
2018-06-04T10:10:33.980Z,11.00
2018-06-04T10:13:02.951Z,10.10
2018-06-04T10:15:32.274Z,10.03
2018-06-04T10:18:01.808Z,10.97
2018-06-04T10:22:52.011Z,11.20
2018-06-04T10:25:21.093Z,13.40
2018-06-04T10:27:50.401Z,15.50
2018-06-04T10:30:20.016Z,15.33
2018-06-04T10:32:49.344Z,15.67
2018-06-04T10:35:18.848Z,14.57
2018-06-04T10:37:48.385Z,16.63
2018-06-04T10:40:18.249Z,14.90
2018-06-04T10:42:47.644Z,14.67
2018-06-04T10:45:17.116Z,14.83
2018-06-04T10:47:46.532Z,12.73
2018-06-04T10:50:16.402Z,13.40
2018-06-04T10:52:45.800Z,14.77
2018-06-04T10:55:15.492Z,14.10
2018-06-04T10:57:45.059Z,13.20
2018-06-04T11:00:14.375Z,13.57
2018-06-04T11:02:43.788Z,13.73
2018-06-04T11:05:14.800Z,13.13
2018-06-04T11:07:45.468Z,12.47
2018-06-04T11:10:14.736Z,11.70
2018-06-04T11:12:44.196Z,12.23
2018-06-04T11:15:13.782Z,13.30
2018-06-04T11:17:43.254Z,11.97
2018-06-04T11:20:12.636Z,12.30
2018-06-04T11:22:42.014Z,11.00
2018-06-04T11:25:11.864Z,12.10
2018-06-04T11:27:41.634Z,11.17
2018-06-04T11:30:10.553Z,11.80
2018-06-04T11:32:39.771Z,11.33
2018-06-04T11:35:09.485Z,10.80
2018-06-04T11:37:38.781Z,12.40
2018-06-04T11:40:08.106Z,11.40
2018-06-04T11:42:37.599Z,11.30
2018-06-04T11:45:06.957Z,10.40
2018-06-04T11:47:36.328Z,10.03
2018-06-04T11:50:05.739Z,10.73
2018-06-04T11:52:34.966Z,9.53
2018-06-04T11:55:04.665Z,9.20
2018-06-04T11:57:37.092Z,10.00
2018-06-04T12:00:06.670Z,9.80
2018-06-04T12:02:36.120Z,10.60
2018-06-04T12:05:05.724Z,19.37
2018-06-04T12:07:35.255Z,22.03
2018-06-04T12:10:04.725Z,18.23
2018-06-04T12:12:34.094Z,20.07
2018-06-04T12:15:03.761Z,20.50
2018-06-04T12:17:33.497Z,23.83
2018-06-04T12:20:02.991Z,25.17
2018-06-04T12:22:32.444Z,23.13
2018-06-04T12:25:02.368Z,24.50
2018-06-04T12:27:37.147Z,26.13
2018-06-04T12:30:12.071Z,25.27
2018-06-04T12:32:46.559Z,25.97
2018-06-04T12:35:21.239Z,24.30
2018-06-04T12:37:56.226Z,22.10
2018-06-04T12:40:31.120Z,23.50
2018-06-04T12:43:06.078Z,24.50
2018-06-04T12:45:35.210Z,26.50
2018-06-04T12:48:04.624Z,25.70
2018-06-04T12:50:34.339Z,25.80
2018-06-04T12:53:03.561Z,25.03
2018-06-04T12:55:33.093Z,25.63
2018-06-04T12:58:08.136Z,25.53
2018-06-04T13:00:43.297Z,25.70
2018-06-04T13:03:18.436Z,25.90
2018-06-04T13:05:52.978Z,24.00
2018-06-04T13:08:27.883Z,21.80
2018-06-04T13:11:02.641Z,20.20
2018-06-04T13:13:32.154Z,19.23
2018-06-04T13:16:07.558Z,17.50
2018-06-04T13:18:42.436Z,16.30
2018-06-04T13:21:17.300Z,13.73
2018-06-04T13:23:53.027Z,12.27
2018-06-04T13:26:27.849Z,12.50
2018-06-04T13:29:02.698Z,17.37
2018-06-04T13:31:37.668Z,22.80
2018-06-04T13:34:12.620Z,22.57
2018-06-04T13:36:47.534Z,22.30
2018-06-04T13:39:22.459Z,25.53
2018-06-04T13:41:57.823Z,19.63
2018-06-04T13:44:32.713Z,21.50
2018-06-04T13:47:07.580Z,22.83
2018-06-04T13:49:42.497Z,22.37
2018-06-04T13:52:17.311Z,21.27
2018-06-04T13:54:46.833Z,26.57
2018-06-04T13:57:21.679Z,23.30
2018-06-04T13:59:56.416Z,24.67
2018-06-04T14:02:31.471Z,22.60
2018-06-04T14:05:08.508Z,25.33
2018-06-04T14:07:43.609Z,24.60
2018-06-04T14:10:18.422Z,24.50
2018-06-04T14:12:53.291Z,24.83
2018-06-04T14:15:28.366Z,27.03
2018-06-04T14:18:03.273Z,24.47
2018-06-04T14:20:38.398Z,26.23
2018-06-04T14:23:13.277Z,27.00
2018-06-04T14:25:48.338Z,28.60
2018-06-04T14:28:23.191Z,26.13
2018-06-04T14:30:58.031Z,29.07
2018-06-04T14:33:33.733Z,26.43
2018-06-04T14:36:08.752Z,27.00
2018-06-04T14:38:43.886Z,25.30
2018-06-04T14:41:18.829Z,25.30
2018-06-04T14:43:48.263Z,24.80
2018-06-04T14:46:23.257Z,24.40
2018-06-04T14:48:58.169Z,27.00
2018-06-04T14:51:33.156Z,26.70
2018-06-04T14:54:08.498Z,28.47
2018-06-04T14:56:43.536Z,26.43
2018-06-04T14:59:18.355Z,25.47
2018-06-04T15:01:53.485Z,25.70
2018-06-04T15:04:28.187Z,21.70
2018-06-04T15:07:03.525Z,24.30
2018-06-04T15:09:38.763Z,25.00
2018-06-04T15:12:13.471Z,23.20
2018-06-04T15:14:48.696Z,20.83
2018-06-04T15:17:23.570Z,21.10
2018-06-04T15:19:58.651Z,18.40
2018-06-04T15:22:34.079Z,18.77
2018-06-04T15:25:09.022Z,21.10
2018-06-04T15:27:43.969Z,20.87
2018-06-04T15:30:19.116Z,20.83
2018-06-04T15:32:54.188Z,20.43
2018-06-04T15:35:28.948Z,21.27
2018-06-04T15:38:04.072Z,19.23
2018-06-04T15:40:38.915Z,23.50
2018-06-04T15:43:13.686Z,23.80
2018-06-04T15:45:49.037Z,21.30
2018-06-04T15:48:26.258Z,21.50
2018-06-04T15:51:01.494Z,23.73
2018-06-04T15:53:36.847Z,22.53
2018-06-04T15:56:11.692Z,22.13
2018-06-04T15:58:47.219Z,22.73
2018-06-04T16:01:22.129Z,25.50
2018-06-04T16:03:57.468Z,24.47
2018-06-04T16:06:32.317Z,22.80
2018-06-04T16:09:07.953Z,24.80
2018-06-04T16:11:43.011Z,25.07
2018-06-04T16:14:13.853Z,23.80
2018-06-04T16:16:48.684Z,23.63
2018-06-04T16:19:23.848Z,20.27
2018-06-04T16:21:58.495Z,19.03
2018-06-04T16:24:33.450Z,19.03
2018-06-04T16:27:09.057Z,17.77
2018-06-04T16:29:44.301Z,20.30
2018-06-04T16:32:19.350Z,19.17
2018-06-04T16:34:54.106Z,20.27
2018-06-04T16:37:29.243Z,21.70
2018-06-04T16:40:04.941Z,20.10
2018-06-04T16:42:40.184Z,19.97
2018-06-04T16:45:15.363Z,19.80
2018-06-04T16:47:50.269Z,19.90
2018-06-04T16:50:30.891Z,19.30
2018-06-04T16:53:00.606Z,18.87
2018-06-04T16:55:29.997Z,19.60
2018-06-04T16:57:59.200Z,19.03
2018-06-04T17:00:28.878Z,19.57
2018-06-04T17:02:58.551Z,18.47
2018-06-04T17:05:28.098Z,19.70
2018-06-04T17:07:57.504Z,19.13
2018-06-04T17:10:26.980Z,18.07
2018-06-04T17:12:56.448Z,18.73
2018-06-04T17:15:26.286Z,20.03
2018-06-04T17:17:55.644Z,19.23
2018-06-04T17:20:29.019Z,19.23
2018-06-04T17:22:58.481Z,18.23
2018-06-04T17:25:27.958Z,18.77
2018-06-04T17:27:57.649Z,17.90
2018-06-04T17:30:27.391Z,16.97
2018-06-04T17:32:56.663Z,17.13
2018-06-04T17:35:31.581Z,18.40
2018-06-04T17:38:06.885Z,17.13
2018-06-04T17:40:41.689Z,18.90
2018-06-04T17:43:16.730Z,19.03
2018-06-04T17:45:51.280Z,17.00
2018-06-04T17:48:26.284Z,17.97
2018-06-04T17:51:06.075Z,18.60
2018-06-04T17:53:41.048Z,18.60
2018-06-04T17:56:16.422Z,16.50
2018-06-04T17:58:51.535Z,16.63
2018-06-04T18:01:26.687Z,17.03
2018-06-04T18:04:02.648Z,17.40
2018-06-04T18:06:38.411Z,17.13
2018-06-04T18:09:13.648Z,16.47
2018-06-04T18:11:52.146Z,17.50
2018-06-04T18:14:27.733Z,15.20
2018-06-04T18:17:03.322Z,15.97
2018-06-04T18:19:38.426Z,15.83
2018-06-04T18:22:13.911Z,17.60
2018-06-04T18:24:48.983Z,16.50
2018-06-04T18:27:25.145Z,14.83
2018-06-04T18:30:01.473Z,17.60
2018-06-04T18:32:38.893Z,17.83
2018-06-04T18:35:13.493Z,16.63
2018-06-04T18:37:48.735Z,17.07
2018-06-04T18:40:24.011Z,16.90
2018-06-04T18:42:59.015Z,17.50
2018-06-04T18:45:34.214Z,16.50
2018-06-04T18:48:09.229Z,17.00
2018-06-04T18:50:44.414Z,16.00
2018-06-04T18:53:19.342Z,17.47
2018-06-04T18:55:54.462Z,17.20
2018-06-04T18:58:29.534Z,17.50
2018-06-04T19:01:04.390Z,18.00
2018-06-04T19:03:39.500Z,16.53
2018-06-04T19:06:14.670Z,16.20
2018-06-04T19:08:50.526Z,17.23
2018-06-04T19:11:25.675Z,17.00
2018-06-04T19:14:00.462Z,17.20
2018-06-04T19:16:35.576Z,17.37
2018-06-04T19:19:10.638Z,16.50
2018-06-04T19:21:46.543Z,16.27
2018-06-04T19:24:21.455Z,18.20
2018-06-04T19:26:56.991Z,17.93
2018-06-04T19:29:32.718Z,17.33
2018-06-04T19:32:08.319Z,17.20
2018-06-04T19:34:43.179Z,17.53
2018-06-04T19:37:18.100Z,17.03
2018-06-04T19:39:53.413Z,15.90
2018-06-04T19:42:28.243Z,16.50
2018-06-04T19:45:03.213Z,17.70
2018-06-04T19:47:38.217Z,16.27
2018-06-04T19:50:13.329Z,17.37
2018-06-04T19:52:48.566Z,18.20
2018-06-04T19:55:24.083Z,17.00
2018-06-04T19:57:59.206Z,16.97
2018-06-04T20:00:35.283Z,16.97
2018-06-04T20:03:10.375Z,16.97
2018-06-04T20:05:46.710Z,16.97
2018-06-04T20:08:22.049Z,17.97
2018-06-04T20:10:57.469Z,16.80
2018-06-04T20:13:32.700Z,16.03
2018-06-04T20:16:08.125Z,18.27
2018-06-04T20:18:42.974Z,17.67
2018-06-04T20:21:18.237Z,17.47
2018-06-04T20:23:53.734Z,18.00
2018-06-04T20:26:29.666Z,17.47
2018-06-04T20:29:04.548Z,18.60
2018-06-04T20:31:34.643Z,19.53
2018-06-04T20:34:09.799Z,19.50
2018-06-04T20:36:45.505Z,18.60
2018-06-04T20:39:20.775Z,19.97
2018-06-04T20:41:55.775Z,19.93
2018-06-04T20:44:30.755Z,19.83
2018-06-04T20:47:05.771Z,20.60
2018-06-04T20:49:40.889Z,19.90
2018-06-04T20:52:15.941Z,20.27
2018-06-04T20:54:51.450Z,19.87
2018-06-04T20:57:26.792Z,19.77
2018-06-04T21:00:01.917Z,19.67
2018-06-04T21:02:37.121Z,20.27
2018-06-04T21:05:12.141Z,20.20
2018-06-04T21:07:47.396Z,22.33
2018-06-04T21:10:22.222Z,19.83
2018-06-04T21:12:57.357Z,20.63
2018-06-04T21:15:32.375Z,21.40
2018-06-04T21:18:07.818Z,21.40
2018-06-04T21:20:42.916Z,22.10
2018-06-04T21:23:17.993Z,21.60
2018-06-04T21:25:52.930Z,21.60
2018-06-04T21:28:27.967Z,21.80
2018-06-04T21:31:02.857Z,20.03
2018-06-04T21:33:37.997Z,22.33
2018-06-04T21:36:12.943Z,21.63
2018-06-04T21:38:48.238Z,21.17
2018-06-04T21:41:23.361Z,20.13
2018-06-04T21:43:58.402Z,21.77
2018-06-04T21:46:33.125Z,21.70
2018-06-04T21:49:08.243Z,21.30
2018-06-04T21:51:43.514Z,22.23
2018-06-04T21:54:18.454Z,21.80
2018-06-04T21:56:53.446Z,23.47
2018-06-04T21:59:28.279Z,21.57
2018-06-04T22:02:03.237Z,22.63
2018-06-04T22:04:38.476Z,22.33
2018-06-04T22:07:13.882Z,21.63
2018-06-04T22:09:49.268Z,22.10
2018-06-04T22:12:23.987Z,22.97
2018-06-04T22:14:58.976Z,22.50
2018-06-04T22:17:33.648Z,22.10
2018-06-04T22:20:08.671Z,23.30
2018-06-04T22:22:43.730Z,24.23
2018-06-04T22:25:18.902Z,23.80
2018-06-04T22:27:54.011Z,23.07
2018-06-04T22:30:42.780Z,23.90
2018-06-04T22:33:19.653Z,23.23
2018-06-04T22:36:16.273Z,24.60
2018-06-04T22:38:51.398Z,23.00
2018-06-04T22:41:27.615Z,26.10
2018-06-04T22:44:03.266Z,25.60
2018-06-04T22:46:38.463Z,25.17
2018-06-04T22:49:16.367Z,25.50
2018-06-04T22:51:51.681Z,24.30
2018-06-04T22:54:26.890Z,24.07
2018-06-04T22:57:01.879Z,24.13
2018-06-04T22:59:36.740Z,24.90
2018-06-04T23:02:12.007Z,25.57
2018-06-04T23:04:53.774Z,25.27
2018-06-04T23:07:29.279Z,23.80
2018-06-04T23:10:04.321Z,26.33
2018-06-04T23:12:39.710Z,26.97
2018-06-04T23:15:15.838Z,23.80
2018-06-04T23:17:51.750Z,27.80
2018-06-04T23:20:27.037Z,26.10
2018-06-04T23:23:05.003Z,25.23
2018-06-04T23:25:41.604Z,26.50
2018-06-04T23:28:16.475Z,25.70
2018-06-04T23:30:45.643Z,25.90
2018-06-04T23:33:20.974Z,26.10
2018-06-04T23:35:55.763Z,27.50
2018-06-04T23:38:30.678Z,26.27
2018-06-04T23:41:05.143Z,26.97
2018-06-04T23:43:40.274Z,27.40
2018-06-04T23:46:15.226Z,28.80
2018-06-04T23:48:50.132Z,28.37
2018-06-04T23:51:25.045Z,26.27
2018-06-04T23:53:59.719Z,28.50
2018-06-04T23:56:34.677Z,27.77
2018-06-04T23:59:09.334Z,28.80
